Angeles, Puerto Rico
Current Conditions -  °F | °C
As of 7:50 PM on Friday 21 Nov 2014 (Local Time) from TJBQ Reporting Station
Broken Clouds Broken Clouds  
Wind Chill: 79°   Ceiling: 4000
Heat Index: 82°   Visibility: 10mi
Dew Point: 72°   Wind: 14mph
Humidity: 78%   Direction: 100°E
Pressure: 30.03"   Gusts: 20mph
Location:  18.29°N, 66.97°W
Report Text: TJBQ 212350Z 10012G17KT 10SM SCT022 SCT031 BKN040 26/22 A3003 RMK LTG DSNT SE RWY08 ATIS C
Loading
Personal Weather Stations






























Interactive Weather Map New forecast layout! Learn more

10-Day Weather Forecast

Advertisements
Track Severe Weather on mobile